Chokurdakh, Russia
Current Conditions -  °F | °C
As of 5:30 PM on Wednesday 22 Oct 2014 (Local Time) from UHMM Reporting Station
Overcast Overcast  
Wind Chill: 11°   Ceiling: 3300
Heat Index: 21°   Visibility: 6mi
Dew Point: 19°   Wind: 9mph
Humidity: 93%   Direction: 100°E
Pressure: 29.41"   Gusts: NA
Location:  70.62°N, 147.87°E
Report Text: UHMM 220630Z 10004MPS 9999 FEW010 OVC033CB M06/M07 Q0996 TEMPO1000 SHSN VV004 RMK QFE732 88450245
Loading
Personal Weather Stations






























Interactive Weather Map
Tropical Storm Tracking
New forecast layout! Learn more

10-Day Weather Forecast

Advertisements
Track Severe Weather on mobile